»·PEaware :: QXE2315 KSEA-KPDX

QXE2315 :: KSEA-KPDX

FLIGHT INFORMATION

Flight Status: Arrived
Operator:
Horizon Air
More flights by this operator :: More flights under this callsign
Pilot: Chad G. (1197)
Aircraft: DEHAVILLAND DASH 8 400
(DH8D)
More flights by this aircraft type
Origin: KSEA Seattle-Tacoma Intl
United States
Destination: KPDX Portland Intl
United States
More flights between these airports :: More routes between these airports
Route: +SEA7 BUWZO KRATR2
File this flight plan on PilotEdge
Remarks:
Altitude:
(Current/Filed)
17,000ft
Speed:
(Current/Filed)
311kts
Departed: 02-Mar-19 05:36 PM
Arrived: 02-Mar-19 06:07 PM
Distance/Time
Traveled:
112nm/0:31
Distance/Time
To Go:
Arrived

Flight Plot

Page will automatically refresh every two minutes.

Flight plan parsing failed; only flown route is shown


Map Options




Map Legend


Flown Route
Filed Route
Departure Airport
Arrival Airport
Navaid (VOR, NDB)
Fix

Horizontal Profiles

Position Reports

Time Latitude Longitude Heading Altitude Ground
Speed
02-Mar-19 16:39 47.444881 -122.304462 57 440ft 0kts
02-Mar-19 16:40 47.444881 -122.304462 57 440ft 0kts
02-Mar-19 16:41 47.444881 -122.304462 57 440ft 0kts
02-Mar-19 16:41 47.444881 -122.304462 57 440ft 0kts
02-Mar-19 16:43 47.444881 -122.304462 57 440ft 0kts
02-Mar-19 16:44 47.444881 -122.304462 57 440ft 0kts
02-Mar-19 16:44 47.444881 -122.304462 57 440ft 0kts
02-Mar-19 16:45 47.444881 -122.304462 57 440ft 0kts
02-Mar-19 16:46 47.444881 -122.304462 57 440ft 0kts
02-Mar-19 16:48 47.444881 -122.304462 57 440ft 0kts
02-Mar-19 16:48 47.444881 -122.304462 57 440ft 0kts
02-Mar-19 16:49 47.444881 -122.304462 57 440ft 0kts
02-Mar-19 16:50 47.444881 -122.304462 57 440ft 0kts
02-Mar-19 16:51 47.444881 -122.304462 57 440ft 0kts
02-Mar-19 16:52 47.444881 -122.304462 57 440ft 0kts
02-Mar-19 16:53 47.444881 -122.304462 57 440ft 0kts
02-Mar-19 16:54 47.444881 -122.304462 57 440ft 0kts
02-Mar-19 16:55 47.444881 -122.304462 57 440ft 0kts
02-Mar-19 16:56 47.444881 -122.304462 57 440ft 0kts
02-Mar-19 16:57 47.444881 -122.304462 57 440ft 0kts
02-Mar-19 16:58 47.444881 -122.304462 57 440ft 0kts
02-Mar-19 16:59 47.444881 -122.304462 57 440ft 0kts
02-Mar-19 17:00 47.444881 -122.304462 57 440ft 0kts
02-Mar-19 17:01 47.444881 -122.304462 57 440ft 0kts
02-Mar-19 17:02 47.444881 -122.304462 57 440ft 0kts
02-Mar-19 17:03 47.444881 -122.304462 57 440ft 0kts
02-Mar-19 17:05 47.444881 -122.304462 57 440ft 0kts
02-Mar-19 17:06 47.444881 -122.304462 57 440ft 0kts
02-Mar-19 17:07 47.444881 -122.304462 57 440ft 0kts
02-Mar-19 17:08 47.444881 -122.304462 57 440ft 0kts
02-Mar-19 17:09 47.444881 -122.304462 57 440ft 0kts
02-Mar-19 17:10 47.444881 -122.304462 57 440ft 0kts
02-Mar-19 17:11 47.444881 -122.304462 57 440ft 0kts
02-Mar-19 17:12 47.444881 -122.304462 57 440ft 0kts
02-Mar-19 17:13 47.444881 -122.304462 57 440ft 0kts
02-Mar-19 17:14 47.444881 -122.304462 57 440ft 0kts
02-Mar-19 17:15 47.444881 -122.304462 57 440ft 0kts
02-Mar-19 17:16 47.444881 -122.304462 57 440ft 0kts
02-Mar-19 17:17 47.444881 -122.304462 57 440ft 0kts
02-Mar-19 17:18 47.444881 -122.304462 57 440ft 0kts
02-Mar-19 17:19 47.444881 -122.304462 57 440ft 0kts
02-Mar-19 17:20 47.444881 -122.304462 57 440ft 0kts
02-Mar-19 17:21 47.444881 -122.304462 57 440ft 0kts
02-Mar-19 17:22 47.444881 -122.304462 57 440ft 0kts
02-Mar-19 17:23 47.444623 -122.305154 80 440ft 2kts
02-Mar-19 17:24 47.444607 -122.305358 88 440ft 0kts
02-Mar-19 17:25 47.444607 -122.305358 88 440ft 0kts
02-Mar-19 17:26 47.444607 -122.305358 88 440ft 0kts
02-Mar-19 17:27 47.444588 -122.305306 121 440ft 1kts
02-Mar-19 17:28 47.443589 -122.305534 214 440ft 7kts
02-Mar-19 17:29 47.441213 -122.306378 180 440ft 12kts
02-Mar-19 17:30 47.437633 -122.306394 180 440ft 11kts
02-Mar-19 17:31 47.434445 -122.305610 180 440ft 11kts
02-Mar-19 17:32 47.431865 -122.306177 222 440ft 6kts
02-Mar-19 17:33 47.431759 -122.306497 264 440ft 0kts
02-Mar-19 17:34 47.431906 -122.308055 356 440ft 0kts
02-Mar-19 17:35 47.454562 -122.308535 359 1686ft 132kts
02-Mar-19 17:36 47.501581 -122.306315 1 3025ft 217kts
02-Mar-19 17:37 47.563761 -122.313360 324 4564ft 228kts
02-Mar-19 17:38 47.553389 -122.385597 191 8048ft 221kts
02-Mar-19 17:39 47.489067 -122.380801 173 10778ft 247kts
02-Mar-19 17:40 47.416045 -122.369521 176 12802ft 273kts
02-Mar-19 17:41 47.337945 -122.358145 178 14576ft 290kts
02-Mar-19 17:42 47.255167 -122.346963 179 16086ft 304kts
02-Mar-19 17:43 47.167677 -122.335506 179 16954ft 331kts
02-Mar-19 17:44 47.069994 -122.323992 179 16980ft 361kts
02-Mar-19 17:45 46.966920 -122.311489 179 16982ft 371kts
02-Mar-19 17:46 46.862116 -122.308652 185 16982ft 371kts
02-Mar-19 17:47 46.757438 -122.309978 184 16983ft 373kts
02-Mar-19 17:48 46.651873 -122.308702 184 16984ft 374kts
02-Mar-19 17:49 46.545901 -122.309747 184 16983ft 371kts
02-Mar-19 17:50 46.441315 -122.309552 184 16984ft 360kts
02-Mar-19 17:51 46.342130 -122.309470 185 16984ft 342kts
02-Mar-19 17:52 46.248574 -122.314830 200 15299ft 312kts
02-Mar-19 17:53 46.166877 -122.360957 205 12428ft 302kts
02-Mar-19 17:54 46.086077 -122.406681 201 9852ft 284kts
02-Mar-19 17:55 46.011073 -122.447490 197 8459ft 274kts
02-Mar-19 17:56 45.941710 -122.483302 197 7176ft 251kts
02-Mar-19 17:57 45.884018 -122.547046 218 6978ft 254kts
02-Mar-19 17:58 45.829418 -122.614231 216 6891ft 253kts
02-Mar-19 17:59 45.775585 -122.677774 216 5852ft 233kts
02-Mar-19 18:00 45.724810 -122.736097 213 3595ft 223kts
02-Mar-19 18:01 45.674833 -122.766610 160 2488ft 184kts
02-Mar-19 18:02 45.642116 -122.715018 120 1869ft 164kts
02-Mar-19 18:03 45.622385 -122.666886 115 1154ft 123kts
02-Mar-19 18:04 45.607357 -122.627926 116 557ft 93kts
02-Mar-19 18:05 45.594424 -122.594691 115 63ft 87kts
02-Mar-19 18:06 45.587814 -122.577639 119 37ft 17kts
02-Mar-19 18:07 45.586668 -122.577999 300 37ft 16kts
02-Mar-19 18:08 45.588299 -122.582133 299 37ft 11kts
02-Mar-19 18:09 45.590295 -122.587258 298 37ft 15kts
02-Mar-19 18:10 45.592474 -122.592860 299 37ft 14kts
02-Mar-19 18:11 45.592895 -122.597772 223 37ft 16kts
02-Mar-19 18:12 45.589945 -122.601728 200 37ft 11kts
02-Mar-19 18:13 45.587592 -122.596687 119 37ft 14kts
02-Mar-19 18:14 45.585350 -122.592115 129 37ft 10kts
02-Mar-19 18:15 45.584355 -122.590141 47 37ft 3kts
02-Mar-19 18:16 45.584851 -122.589709 29 37ft 0kts
02-Mar-19 18:17 45.584851 -122.589709 29 37ft 0kts

Navigation Log

Ident Type
Flight plan parsing failed, navigation log unavailable